createdAt,value
2024-04-30T00:00:26.955Z,14.71
2024-04-30T00:01:26.929Z,14.69
2024-04-30T00:02:27.018Z,14.66
2024-04-30T00:03:27.104Z,14.66
2024-04-30T00:04:27.251Z,14.66
2024-04-30T00:05:27.257Z,14.61
2024-04-30T00:06:27.320Z,14.59
2024-04-30T00:07:27.475Z,14.60
2024-04-30T00:08:27.464Z,14.59
2024-04-30T00:09:27.550Z,14.57
2024-04-30T00:10:27.684Z,14.59
2024-04-30T00:11:27.735Z,14.57
2024-04-30T00:12:27.805Z,14.60
2024-04-30T00:13:27.902Z,14.59
2024-04-30T00:14:27.952Z,14.56
2024-04-30T00:15:28.029Z,14.57
2024-04-30T00:16:28.133Z,14.56
2024-04-30T00:17:28.218Z,14.56
2024-04-30T00:18:28.286Z,14.56
2024-04-30T00:19:28.515Z,14.56
2024-04-30T00:20:28.503Z,14.56
2024-04-30T00:21:28.542Z,14.56
2024-04-30T00:22:28.684Z,14.56
2024-04-30T00:23:28.714Z,14.56
2024-04-30T00:24:28.781Z,14.54
2024-04-30T00:25:28.953Z,14.54
2024-04-30T00:26:28.968Z,14.53
2024-04-30T00:27:29.054Z,14.54
2024-04-30T00:28:29.251Z,14.53
2024-04-30T00:29:29.208Z,14.53
2024-04-30T00:30:29.288Z,14.54
2024-04-30T00:31:29.466Z,14.53
2024-04-30T00:32:29.548Z,14.53
2024-04-30T00:33:29.510Z,14.52
2024-04-30T00:34:29.617Z,14.52
2024-04-30T00:35:29.694Z,14.49
2024-04-30T00:36:29.860Z,14.49
2024-04-30T00:37:29.918Z,14.48
2024-04-30T00:38:29.909Z,14.46
2024-04-30T00:39:30.011Z,14.46
2024-04-30T00:40:30.112Z,14.45
2024-04-30T00:41:30.212Z,14.44
2024-04-30T00:42:30.219Z,14.42
2024-04-30T00:43:30.370Z,14.41
2024-04-30T00:44:30.338Z,14.38
2024-04-30T00:45:30.442Z,14.39
2024-04-30T00:46:30.642Z,14.39
2024-04-30T00:47:30.662Z,14.35
2024-04-30T00:48:30.829Z,14.31
2024-04-30T00:49:30.840Z,14.31
2024-04-30T00:50:30.824Z,14.30
2024-04-30T00:51:30.886Z,14.30
2024-04-30T00:52:31.069Z,14.30
2024-04-30T00:53:31.046Z,14.29
2024-04-30T00:54:31.156Z,14.29
2024-04-30T00:55:31.300Z,14.27
2024-04-30T00:56:31.310Z,14.26
2024-04-30T00:57:31.390Z,14.27
2024-04-30T00:58:31.574Z,14.29
2024-04-30T00:59:31.571Z,14.27
2024-04-30T01:00:31.681Z,14.29
2024-04-30T01:01:31.776Z,14.29
2024-04-30T01:02:31.837Z,14.30
2024-04-30T01:03:31.947Z,14.29
2024-04-30T01:04:32.032Z,14.29
2024-04-30T01:05:32.069Z,14.29
2024-04-30T01:06:32.160Z,14.29
2024-04-30T01:07:32.346Z,14.29
2024-04-30T01:08:32.326Z,14.24
2024-04-30T01:09:32.413Z,14.23
2024-04-30T01:10:32.526Z,14.20
2024-04-30T01:11:32.653Z,14.17
2024-04-30T01:12:32.685Z,14.08
2024-04-30T01:13:32.834Z,14.02
2024-04-30T01:14:32.861Z,13.93
2024-04-30T01:15:32.981Z,13.88
2024-04-30T01:16:33.107Z,13.87
2024-04-30T01:17:33.158Z,13.81
2024-04-30T01:18:33.168Z,13.73
2024-04-30T01:19:33.266Z,13.72
2024-04-30T01:20:33.296Z,13.71
2024-04-30T01:21:33.410Z,13.72
2024-04-30T01:22:33.520Z,13.76
2024-04-30T01:23:33.547Z,13.79
2024-04-30T01:24:33.641Z,13.80
2024-04-30T01:25:33.816Z,13.83
2024-04-30T01:26:33.832Z,13.84
2024-04-30T01:27:33.918Z,13.88
2024-04-30T01:28:34.018Z,13.90
2024-04-30T01:29:34.051Z,13.93
2024-04-30T01:30:34.162Z,13.96
2024-04-30T01:31:34.295Z,13.98
2024-04-30T01:32:34.399Z,13.94
2024-04-30T01:33:34.405Z,13.96
2024-04-30T01:34:34.610Z,13.94
2024-04-30T01:35:34.564Z,13.93
2024-04-30T01:36:34.663Z,13.94
2024-04-30T01:37:34.816Z,13.96
2024-04-30T01:38:34.826Z,13.94
2024-04-30T01:39:34.896Z,13.93
2024-04-30T01:40:35.034Z,13.93
2024-04-30T01:41:35.038Z,13.91
2024-04-30T01:42:35.141Z,13.91
2024-04-30T01:43:35.330Z,13.91
2024-04-30T01:44:35.307Z,13.91
2024-04-30T01:45:35.401Z,13.93
2024-04-30T01:46:35.544Z,13.91
2024-04-30T01:47:35.602Z,13.90
2024-04-30T01:48:35.623Z,13.91
2024-04-30T01:49:35.743Z,13.93
2024-04-30T01:50:35.795Z,13.93
2024-04-30T01:51:35.860Z,13.94
2024-04-30T01:52:35.979Z,13.94
2024-04-30T01:53:36.009Z,13.94
2024-04-30T01:54:36.119Z,13.94
2024-04-30T01:55:36.216Z,13.94
2024-04-30T01:56:36.259Z,13.96
2024-04-30T01:57:36.326Z,13.98
2024-04-30T01:58:36.405Z,13.94
2024-04-30T01:59:36.512Z,13.93
2024-04-30T02:00:36.592Z,13.93
2024-04-30T02:01:36.691Z,13.91
2024-04-30T02:02:36.745Z,13.90
2024-04-30T02:03:36.842Z,13.90
2024-04-30T02:04:42.685Z,13.88
2024-04-30T02:05:36.999Z,13.90
2024-04-30T02:06:37.073Z,13.90
2024-04-30T02:07:37.150Z,13.90
2024-04-30T02:08:37.207Z,13.88
2024-04-30T02:09:37.315Z,13.88
2024-04-30T02:10:37.495Z,13.90
2024-04-30T02:11:37.469Z,13.90
2024-04-30T02:12:37.537Z,13.93
2024-04-30T02:13:37.663Z,13.93
2024-04-30T02:14:37.694Z,13.91
2024-04-30T02:15:37.758Z,13.90
2024-04-30T02:16:37.841Z,13.90
2024-04-30T02:17:38.065Z,13.86
2024-04-30T02:18:38.013Z,13.86
2024-04-30T02:19:38.155Z,13.84
2024-04-30T02:20:38.174Z,13.86
2024-04-30T02:21:38.252Z,13.86
2024-04-30T02:22:38.359Z,13.84
2024-04-30T02:23:38.373Z,13.84
2024-04-30T02:24:38.482Z,13.84
2024-04-30T02:25:38.629Z,13.83
2024-04-30T02:26:38.648Z,13.81
2024-04-30T02:27:38.722Z,13.79
2024-04-30T02:28:38.812Z,13.76
2024-04-30T02:29:38.874Z,13.76
2024-04-30T02:30:38.949Z,13.75
2024-04-30T02:31:39.031Z,13.75
2024-04-30T02:32:39.195Z,13.73
2024-04-30T02:33:39.179Z,13.69
2024-04-30T02:34:39.268Z,13.68
2024-04-30T02:35:39.306Z,13.65
2024-04-30T02:36:39.391Z,13.62
2024-04-30T02:37:39.464Z,13.57
2024-04-30T02:38:39.518Z,13.54
2024-04-30T02:39:39.599Z,13.54
2024-04-30T02:40:39.692Z,13.54
2024-04-30T02:41:39.721Z,13.51
2024-04-30T02:42:39.778Z,13.48
2024-04-30T02:43:39.884Z,13.46
2024-04-30T02:44:39.927Z,13.44
2024-04-30T02:45:39.991Z,13.43
2024-04-30T02:46:40.086Z,13.41
2024-04-30T02:47:40.208Z,13.39
2024-04-30T02:48:40.239Z,13.38
2024-04-30T02:49:40.351Z,13.38
2024-04-30T02:50:40.401Z,13.35
2024-04-30T02:51:40.464Z,13.36
2024-04-30T02:52:40.555Z,13.36
2024-04-30T02:53:40.601Z,13.38
2024-04-30T02:54:40.685Z,13.38
2024-04-30T02:55:40.791Z,13.36
2024-04-30T02:56:40.847Z,13.36
2024-04-30T02:57:40.939Z,13.36
2024-04-30T02:58:41.015Z,13.36
2024-04-30T02:59:41.130Z,13.35
2024-04-30T03:00:41.170Z,13.36
2024-04-30T03:01:41.278Z,13.36
2024-04-30T03:02:41.317Z,13.36
2024-04-30T03:03:41.394Z,13.36
2024-04-30T03:04:41.534Z,13.31
2024-04-30T03:05:41.531Z,13.31
2024-04-30T03:06:41.582Z,13.28
2024-04-30T03:07:41.725Z,13.27
2024-04-30T03:08:41.758Z,13.27
2024-04-30T03:09:41.835Z,13.27
2024-04-30T03:10:41.976Z,13.25
2024-04-30T03:11:41.990Z,13.28
2024-04-30T03:12:42.089Z,13.28
2024-04-30T03:13:42.216Z,13.27
2024-04-30T03:14:42.213Z,13.25
2024-04-30T03:15:42.295Z,13.27
2024-04-30T03:16:42.461Z,13.24
2024-04-30T03:17:42.549Z,13.22
2024-04-30T03:18:42.539Z,13.22
2024-04-30T03:19:42.625Z,13.22
2024-04-30T03:20:42.690Z,13.21
2024-04-30T03:21:42.774Z,13.21
2024-04-30T03:22:42.826Z,13.21
2024-04-30T03:23:42.918Z,13.22
2024-04-30T03:24:43.005Z,13.22
2024-04-30T03:25:43.126Z,13.19
2024-04-30T03:26:43.153Z,13.17
2024-04-30T03:27:43.246Z,13.16
2024-04-30T03:28:43.329Z,13.14
2024-04-30T03:29:43.399Z,13.14
2024-04-30T03:30:43.464Z,13.12
2024-04-30T03:31:43.561Z,13.10
2024-04-30T03:32:43.772Z,13.10
2024-04-30T03:33:43.752Z,13.07
2024-04-30T03:34:43.857Z,13.04
2024-04-30T03:35:43.883Z,13.04
2024-04-30T03:36:43.955Z,13.01
2024-04-30T03:37:44.032Z,12.99
2024-04-30T03:38:44.126Z,12.96
2024-04-30T03:39:44.218Z,12.92
2024-04-30T03:40:44.316Z,12.88
2024-04-30T03:41:44.375Z,12.88
2024-04-30T03:42:44.459Z,12.87
2024-04-30T03:43:44.637Z,12.85
2024-04-30T03:44:44.635Z,12.87
2024-04-30T03:45:44.706Z,12.85
2024-04-30T03:46:44.841Z,12.85
2024-04-30T03:47:44.934Z,12.87
2024-04-30T03:48:44.977Z,12.85
2024-04-30T03:49:45.056Z,12.84
2024-04-30T03:50:45.112Z,12.81
2024-04-30T03:51:45.194Z,12.79
2024-04-30T03:52:45.280Z,12.79
2024-04-30T03:53:45.353Z,12.77
2024-04-30T03:54:45.431Z,12.77
2024-04-30T03:55:45.522Z,12.80
2024-04-30T03:56:45.604Z,12.79
2024-04-30T03:57:45.689Z,12.80
2024-04-30T03:58:45.781Z,12.79
2024-04-30T03:59:45.837Z,12.77
2024-04-30T04:00:45.947Z,12.77
2024-04-30T04:01:46.085Z,12.77
2024-04-30T04:02:46.113Z,12.76
2024-04-30T04:03:46.218Z,12.73
2024-04-30T04:04:46.282Z,12.74
2024-04-30T04:05:46.317Z,12.74
2024-04-30T04:06:46.396Z,12.73
2024-04-30T04:07:46.575Z,12.69
2024-04-30T04:08:46.548Z,12.67
2024-04-30T04:09:46.661Z,12.66
2024-04-30T04:10:46.744Z,12.61
2024-04-30T04:11:46.867Z,12.59
2024-04-30T04:12:46.872Z,12.56
2024-04-30T04:13:46.955Z,12.56
2024-04-30T04:14:48.493Z,12.56
2024-04-30T04:15:47.080Z,12.56
2024-04-30T04:16:47.171Z,12.52
2024-04-30T04:17:47.272Z,12.49
2024-04-30T04:18:47.393Z,12.43
2024-04-30T04:19:47.470Z,12.41
2024-04-30T04:20:47.483Z,12.46
2024-04-30T04:21:47.587Z,12.48
2024-04-30T04:22:47.648Z,12.48
2024-04-30T04:23:47.718Z,12.44
2024-04-30T04:24:47.784Z,12.43
2024-04-30T04:25:47.871Z,12.44
2024-04-30T04:26:47.913Z,12.48
2024-04-30T04:27:47.995Z,12.49
2024-04-30T04:28:48.049Z,12.48
2024-04-30T04:29:48.136Z,12.52
2024-04-30T04:30:48.205Z,12.52
2024-04-30T04:31:48.352Z,12.52
2024-04-30T04:32:48.454Z,12.54
2024-04-30T04:33:48.480Z,12.58
2024-04-30T04:34:48.538Z,12.61
2024-04-30T04:35:48.627Z,12.61
2024-04-30T04:36:48.680Z,12.59
2024-04-30T04:37:48.831Z,12.62
2024-04-30T04:38:48.849Z,12.66
2024-04-30T04:39:48.961Z,12.63
2024-04-30T04:40:49.048Z,12.67
2024-04-30T04:41:49.188Z,12.69
2024-04-30T04:42:49.186Z,12.69
2024-04-30T04:43:49.384Z,12.71
2024-04-30T04:44:49.359Z,12.70
2024-04-30T04:45:49.453Z,12.74
2024-04-30T04:46:49.553Z,12.76
2024-04-30T04:47:49.620Z,12.74
2024-04-30T04:48:49.673Z,12.69
2024-04-30T04:49:49.779Z,12.63
2024-04-30T04:50:49.852Z,12.62
2024-04-30T04:51:50.340Z,12.61
2024-04-30T04:52:50.041Z,12.63
2024-04-30T04:53:50.100Z,12.61
2024-04-30T04:54:50.204Z,12.63
2024-04-30T04:55:50.381Z,12.67
2024-04-30T04:56:50.372Z,12.71
2024-04-30T04:57:50.459Z,12.76
2024-04-30T04:58:50.517Z,12.79
2024-04-30T04:59:50.618Z,12.81
2024-04-30T05:00:50.721Z,12.85
2024-04-30T05:01:50.808Z,12.87
2024-04-30T05:02:50.893Z,12.89
2024-04-30T05:03:51.020Z,12.89
2024-04-30T05:04:51.039Z,12.89
2024-04-30T05:05:51.082Z,12.92
2024-04-30T05:06:52.820Z,12.94
2024-04-30T05:07:51.233Z,12.96
2024-04-30T05:08:51.312Z,12.98
2024-04-30T05:09:51.396Z,13.03
2024-04-30T05:10:51.560Z,13.06
2024-04-30T05:11:51.557Z,13.09
2024-04-30T05:12:51.633Z,13.06
2024-04-30T05:13:51.719Z,13.01
2024-04-30T05:14:55.297Z,12.91
2024-04-30T05:15:51.855Z,12.88
2024-04-30T05:16:52.022Z,12.84
2024-04-30T05:17:52.089Z,12.81
2024-04-30T05:18:52.086Z,12.80
2024-04-30T05:19:52.147Z,12.85
2024-04-30T05:20:52.234Z,12.89
2024-04-30T05:21:52.314Z,12.94
2024-04-30T05:22:52.378Z,12.99
2024-04-30T05:23:52.445Z,13.04
2024-04-30T05:24:52.514Z,13.09
2024-04-30T05:25:52.569Z,13.10
2024-04-30T05:26:52.680Z,13.12
2024-04-30T05:27:52.769Z,13.17
2024-04-30T05:28:52.823Z,13.17
2024-04-30T05:29:55.506Z,13.10
2024-04-30T05:30:52.995Z,13.01
2024-04-30T05:31:53.067Z,12.92
2024-04-30T05:32:53.269Z,12.84
2024-04-30T05:33:53.257Z,12.77
2024-04-30T05:34:53.301Z,12.71
2024-04-30T05:35:53.361Z,12.73
2024-04-30T05:36:53.474Z,12.74
2024-04-30T05:37:53.533Z,12.79
2024-04-30T05:38:53.598Z,12.81
2024-04-30T05:39:53.686Z,12.89
2024-04-30T05:40:53.799Z,12.96
2024-04-30T05:41:53.856Z,13.06
2024-04-30T05:42:53.977Z,13.14
2024-04-30T05:43:54.056Z,13.22
2024-04-30T05:44:54.121Z,13.28
2024-04-30T05:45:54.219Z,13.38
2024-04-30T05:46:54.391Z,13.47
2024-04-30T05:47:54.393Z,13.55
2024-04-30T05:48:54.417Z,13.55
2024-04-30T05:49:54.461Z,13.51
2024-04-30T05:50:54.553Z,13.53
2024-04-30T05:51:54.634Z,13.54
2024-04-30T05:52:54.719Z,13.65
2024-04-30T05:53:56.452Z,13.75
2024-04-30T05:54:54.881Z,13.88
2024-04-30T05:55:54.953Z,13.99
2024-04-30T05:56:55.044Z,14.09
2024-04-30T05:57:55.140Z,14.20
2024-04-30T05:58:55.202Z,14.31
2024-04-30T05:59:55.371Z,14.46
2024-04-30T06:00:55.387Z,14.64
2024-04-30T06:01:55.456Z,14.87
2024-04-30T06:02:55.514Z,15.12
2024-04-30T06:03:55.702Z,15.23
2024-04-30T06:04:55.808Z,15.49
2024-04-30T06:05:55.758Z,15.74
2024-04-30T06:06:55.848Z,16.01
2024-04-30T06:07:55.931Z,16.30
2024-04-30T06:08:55.984Z,16.41
2024-04-30T06:09:56.054Z,16.52
2024-04-30T06:10:56.236Z,16.82
2024-04-30T06:11:56.197Z,16.99
2024-04-30T06:12:56.280Z,17.18
2024-04-30T06:13:56.352Z,17.33
2024-04-30T06:14:56.442Z,17.53
2024-04-30T06:15:56.519Z,17.63
2024-04-30T06:16:56.597Z,17.74
2024-04-30T06:17:56.698Z,17.71
2024-04-30T06:18:56.788Z,17.73
2024-04-30T06:19:56.825Z,17.81
2024-04-30T06:20:56.903Z,18.11
2024-04-30T06:21:56.964Z,18.38
2024-04-30T06:22:57.039Z,18.66
2024-04-30T06:23:57.112Z,18.93
2024-04-30T06:24:57.171Z,19.28
2024-04-30T06:25:57.230Z,19.62
2024-04-30T06:26:57.317Z,19.94
2024-04-30T06:27:57.361Z,20.44
2024-04-30T06:28:57.437Z,20.82
2024-04-30T06:29:57.514Z,21.21
2024-04-30T06:30:57.577Z,21.40
2024-04-30T06:31:57.633Z,21.71
2024-04-30T06:32:57.775Z,21.98
2024-04-30T06:33:57.875Z,21.98
2024-04-30T06:34:57.903Z,21.98
2024-04-30T06:35:57.941Z,22.20
2024-04-30T06:36:58.010Z,22.46
2024-04-30T06:37:58.067Z,22.21
2024-04-30T06:38:58.150Z,22.12
2024-04-30T06:39:58.236Z,22.08
2024-04-30T06:40:58.344Z,22.04
2024-04-30T06:41:58.434Z,21.91
2024-04-30T06:42:58.454Z,21.63
2024-04-30T06:43:58.533Z,21.56
2024-04-30T06:44:58.587Z,21.34
2024-04-30T06:45:58.652Z,21.24
2024-04-30T06:46:58.721Z,21.28
2024-04-30T06:47:58.911Z,21.22
2024-04-30T06:48:58.879Z,21.11
2024-04-30T06:49:59.003Z,21.00
2024-04-30T06:50:59.080Z,20.87
2024-04-30T06:51:59.168Z,20.19
2024-04-30T06:52:59.229Z,19.82
2024-04-30T06:53:59.302Z,19.72
2024-04-30T06:54:59.358Z,19.64
2024-04-30T06:55:59.461Z,19.65
2024-04-30T06:56:59.535Z,19.70
2024-04-30T06:57:59.583Z,19.76
2024-04-30T06:58:59.710Z,19.85
2024-04-30T06:59:59.772Z,19.94
2024-04-30T07:00:59.865Z,20.04
2024-04-30T07:01:59.904Z,20.16
2024-04-30T07:03:00.085Z,20.26
2024-04-30T07:04:00.104Z,20.27
2024-04-30T07:05:00.391Z,20.40
2024-04-30T07:06:00.237Z,20.51
2024-04-30T07:07:00.324Z,20.60
2024-04-30T07:08:00.390Z,20.64
2024-04-30T07:09:00.448Z,20.71
2024-04-30T07:10:00.520Z,20.66
2024-04-30T07:11:02.851Z,20.69
2024-04-30T07:12:00.677Z,20.73
2024-04-30T07:13:00.784Z,20.90
2024-04-30T07:14:00.814Z,21.26
2024-04-30T07:15:00.912Z,21.53
2024-04-30T07:16:01.006Z,21.86
2024-04-30T07:17:07.458Z,22.30
2024-04-30T07:18:01.179Z,22.76
2024-04-30T07:19:01.224Z,23.63
2024-04-30T07:20:01.275Z,24.31
2024-04-30T07:21:01.372Z,24.70
2024-04-30T07:22:01.474Z,24.82
2024-04-30T07:23:01.534Z,24.89
2024-04-30T07:24:01.611Z,25.23
2024-04-30T07:25:01.670Z,25.14
2024-04-30T07:26:01.735Z,25.27
2024-04-30T07:27:01.841Z,25.34
2024-04-30T07:28:01.906Z,25.30
2024-04-30T07:29:01.997Z,25.26
2024-04-30T07:30:02.165Z,24.80
2024-04-30T07:31:02.346Z,24.52
2024-04-30T07:32:02.326Z,24.11
2024-04-30T07:33:02.461Z,23.31
2024-04-30T07:34:02.623Z,22.78
2024-04-30T07:35:02.540Z,22.74
2024-04-30T07:36:02.541Z,22.74
2024-04-30T07:37:02.735Z,22.81
2024-04-30T07:38:02.706Z,22.64
2024-04-30T07:39:02.773Z,22.78
2024-04-30T07:40:02.954Z,23.00
2024-04-30T07:41:02.952Z,23.35
2024-04-30T07:42:05.854Z,23.50
2024-04-30T07:43:03.128Z,23.39
2024-04-30T07:44:03.183Z,23.49
2024-04-30T07:45:03.267Z,23.34
2024-04-30T07:46:03.365Z,23.31
2024-04-30T07:47:03.565Z,23.31
2024-04-30T07:48:03.726Z,23.23
2024-04-30T07:49:03.646Z,23.12
2024-04-30T07:50:03.695Z,22.99
2024-04-30T07:51:03.786Z,22.94
2024-04-30T07:52:04.042Z,22.94
2024-04-30T07:53:03.952Z,22.94
2024-04-30T07:54:04.013Z,22.86
2024-04-30T07:55:04.145Z,22.88
2024-04-30T07:56:04.154Z,22.88
2024-04-30T07:57:04.252Z,22.94
2024-04-30T07:58:04.335Z,22.97
2024-04-30T07:59:04.378Z,22.97
2024-04-30T08:00:04.473Z,23.01
2024-04-30T08:01:04.668Z,23.09
2024-04-30T08:02:04.822Z,22.91
2024-04-30T08:03:04.803Z,22.78
2024-04-30T08:04:04.925Z,22.67
2024-04-30T08:05:04.898Z,22.48
2024-04-30T08:06:10.852Z,22.33
2024-04-30T08:07:05.146Z,22.29
2024-04-30T08:08:05.179Z,22.27
2024-04-30T08:09:05.239Z,22.26
2024-04-30T08:10:05.384Z,22.14
2024-04-30T08:11:05.405Z,22.23
2024-04-30T08:12:05.480Z,22.29
2024-04-30T08:13:05.594Z,22.31
2024-04-30T08:14:05.596Z,22.46
2024-04-30T08:15:05.703Z,22.86
2024-04-30T08:16:05.818Z,23.21
2024-04-30T08:17:05.969Z,23.47
2024-04-30T08:18:06.094Z,23.63
2024-04-30T08:19:06.106Z,23.64
2024-04-30T08:20:06.113Z,23.79
2024-04-30T08:21:06.219Z,24.02
2024-04-30T08:22:06.333Z,24.55
2024-04-30T08:23:06.402Z,25.08
2024-04-30T08:24:06.474Z,25.45
2024-04-30T08:25:06.613Z,25.67
2024-04-30T08:26:06.594Z,25.46
2024-04-30T08:27:06.700Z,25.51
2024-04-30T08:28:06.773Z,26.04
2024-04-30T08:29:06.813Z,26.65
2024-04-30T08:30:06.901Z,26.68
2024-04-30T08:31:06.991Z,26.36
2024-04-30T08:32:07.073Z,26.66
2024-04-30T08:33:07.205Z,27.30
2024-04-30T08:34:07.231Z,28.02
2024-04-30T08:35:07.279Z,28.87
2024-04-30T08:36:07.349Z,29.60
2024-04-30T08:37:07.412Z,29.48
2024-04-30T08:38:07.536Z,28.92
2024-04-30T08:39:07.566Z,28.13
2024-04-30T08:40:07.640Z,27.99
2024-04-30T08:41:07.699Z,27.84
2024-04-30T08:42:07.776Z,27.78
2024-04-30T08:43:07.887Z,28.11
2024-04-30T08:44:07.979Z,28.17
2024-04-30T08:45:08.039Z,27.59
2024-04-30T08:46:08.266Z,27.23
2024-04-30T08:47:08.384Z,26.86
2024-04-30T08:48:08.274Z,26.72
2024-04-30T08:49:08.378Z,27.21
2024-04-30T08:50:15.908Z,27.62
2024-04-30T08:51:08.596Z,28.25
2024-04-30T08:52:08.660Z,28.60
2024-04-30T08:53:08.719Z,29.37
2024-04-30T08:54:08.751Z,29.63
2024-04-30T08:55:08.881Z,30.15
2024-04-30T08:56:11.271Z,30.73
2024-04-30T08:57:09.011Z,31.04
2024-04-30T08:58:09.130Z,31.79
2024-04-30T08:59:09.188Z,32.49
2024-04-30T09:00:09.255Z,32.99
2024-04-30T09:01:09.580Z,33.09
2024-04-30T09:02:09.467Z,33.15
2024-04-30T09:03:09.539Z,33.50
2024-04-30T09:04:09.657Z,33.62
2024-04-30T09:05:09.649Z,34.05
2024-04-30T09:06:09.709Z,34.37
2024-04-30T09:07:09.820Z,34.14
2024-04-30T09:08:09.863Z,33.96
2024-04-30T09:09:09.948Z,33.18
2024-04-30T09:10:10.076Z,32.58
2024-04-30T09:11:10.187Z,32.80
2024-04-30T09:12:10.342Z,33.03
2024-04-30T09:13:10.301Z,31.98
2024-04-30T09:14:10.348Z,31.03
2024-04-30T09:15:10.422Z,30.28
2024-04-30T09:16:10.599Z,29.70
2024-04-30T09:17:10.630Z,29.14
2024-04-30T09:18:10.754Z,28.65
2024-04-30T09:19:10.729Z,28.55
2024-04-30T09:20:10.820Z,28.52
2024-04-30T09:21:16.958Z,28.40
2024-04-30T09:22:10.987Z,28.17
2024-04-30T09:23:11.016Z,28.02
2024-04-30T09:24:11.132Z,27.66
2024-04-30T09:25:11.203Z,27.33
2024-04-30T09:26:11.259Z,27.02
2024-04-30T09:27:11.320Z,27.01
2024-04-30T09:28:11.439Z,27.15
2024-04-30T09:29:11.485Z,26.83
2024-04-30T09:30:11.556Z,26.76
2024-04-30T09:31:11.677Z,27.12
2024-04-30T09:32:11.721Z,27.43
2024-04-30T09:33:11.964Z,27.80
2024-04-30T09:34:11.854Z,28.08
2024-04-30T09:35:11.913Z,28.25
2024-04-30T09:36:13.595Z,28.48
2024-04-30T09:37:12.098Z,28.74
2024-04-30T09:38:12.140Z,29.03
2024-04-30T09:39:12.247Z,29.10
2024-04-30T09:40:12.286Z,28.98
2024-04-30T09:41:12.537Z,28.87
2024-04-30T09:42:12.452Z,28.57
2024-04-30T09:43:12.519Z,28.50
2024-04-30T09:44:12.619Z,28.65
2024-04-30T09:45:12.677Z,29.18
2024-04-30T09:46:12.846Z,29.11
2024-04-30T09:47:12.886Z,29.27
2024-04-30T09:48:12.931Z,29.45
2024-04-30T09:49:13.050Z,29.26
2024-04-30T09:50:13.084Z,29.15
2024-04-30T09:51:13.170Z,29.71
2024-04-30T09:52:13.229Z,29.99
2024-04-30T09:53:13.295Z,30.04
2024-04-30T09:54:13.354Z,29.94
2024-04-30T09:55:13.476Z,29.64
2024-04-30T09:56:13.551Z,29.78
2024-04-30T09:57:13.674Z,29.76
2024-04-30T09:58:13.731Z,29.79
2024-04-30T09:59:13.797Z,29.64
2024-04-30T10:00:15.218Z,30.15
2024-04-30T10:01:13.992Z,30.29
2024-04-30T10:02:14.012Z,30.53
2024-04-30T10:03:14.216Z,30.88
2024-04-30T10:04:14.288Z,31.22
2024-04-30T10:05:14.433Z,31.31
2024-04-30T10:06:14.301Z,31.15
2024-04-30T10:07:14.446Z,30.88
2024-04-30T10:08:14.480Z,30.59
2024-04-30T10:09:14.542Z,30.53
2024-04-30T10:10:14.652Z,29.91
2024-04-30T10:11:14.757Z,29.89
2024-04-30T10:12:14.799Z,29.89
2024-04-30T10:13:14.935Z,29.88
2024-04-30T10:14:14.989Z,29.91
2024-04-30T10:15:15.084Z,29.84
2024-04-30T10:16:15.343Z,29.70
2024-04-30T10:17:15.387Z,29.66
2024-04-30T10:18:15.355Z,29.51
2024-04-30T10:19:15.426Z,29.58
2024-04-30T10:20:15.511Z,29.67
2024-04-30T10:21:15.542Z,29.74
2024-04-30T10:22:15.739Z,30.01
2024-04-30T10:23:15.696Z,29.95
2024-04-30T10:24:15.761Z,29.70
2024-04-30T10:25:15.847Z,29.79
2024-04-30T10:26:16.056Z,29.89
2024-04-30T10:27:15.967Z,29.85
2024-04-30T10:28:16.157Z,29.81
2024-04-30T10:29:16.156Z,29.99
2024-04-30T10:30:16.227Z,30.11
2024-04-30T10:31:16.341Z,30.29
2024-04-30T10:32:16.385Z,30.38
2024-04-30T10:33:16.601Z,30.42
2024-04-30T10:34:16.660Z,30.38
2024-04-30T10:35:16.598Z,30.40
2024-04-30T10:36:16.715Z,30.26
2024-04-30T10:37:16.806Z,29.62
2024-04-30T10:38:16.866Z,29.07
2024-04-30T10:39:16.987Z,28.69
2024-04-30T10:40:17.001Z,28.45
2024-04-30T10:41:17.052Z,27.98
2024-04-30T10:42:17.115Z,27.78
2024-04-30T10:43:17.219Z,27.55
2024-04-30T10:44:17.271Z,27.59
2024-04-30T10:45:17.358Z,27.55
2024-04-30T10:46:17.535Z,27.33
2024-04-30T10:47:17.662Z,27.35
2024-04-30T10:48:17.693Z,27.33
2024-04-30T10:49:17.739Z,27.05
2024-04-30T10:50:19.789Z,26.96
2024-04-30T10:51:17.861Z,26.71
2024-04-30T10:52:17.926Z,26.59
2024-04-30T10:53:18.031Z,26.32
2024-04-30T10:54:18.150Z,26.09
2024-04-30T10:55:18.196Z,25.94
2024-04-30T10:56:18.275Z,25.72
2024-04-30T10:57:18.396Z,25.51
2024-04-30T10:58:18.525Z,25.35
2024-04-30T10:59:18.541Z,25.30
2024-04-30T11:00:18.607Z,25.38
2024-04-30T11:01:18.703Z,25.42
2024-04-30T11:02:18.755Z,25.51
2024-04-30T11:03:18.912Z,25.57
2024-04-30T11:04:19.015Z,25.72
2024-04-30T11:05:19.068Z,25.90
2024-04-30T11:06:19.120Z,25.97
2024-04-30T11:07:19.265Z,26.08
2024-04-30T11:08:19.235Z,26.20
2024-04-30T11:09:19.315Z,26.27
2024-04-30T11:10:19.425Z,26.28
2024-04-30T11:11:19.509Z,26.21
2024-04-30T11:12:19.563Z,26.28
2024-04-30T11:13:19.636Z,26.46
2024-04-30T11:14:19.709Z,26.50
2024-04-30T11:15:19.782Z,26.49
2024-04-30T11:16:19.876Z,26.57
2024-04-30T11:17:20.043Z,26.56
2024-04-30T11:18:20.128Z,26.57
2024-04-30T11:19:20.118Z,26.46
2024-04-30T11:20:20.200Z,26.41
2024-04-30T11:21:20.285Z,26.39
2024-04-30T11:22:20.383Z,26.35
2024-04-30T11:23:20.397Z,26.31
2024-04-30T11:24:20.518Z,26.20
2024-04-30T11:25:20.659Z,26.31
2024-04-30T11:26:20.644Z,26.44
2024-04-30T11:27:20.726Z,26.54
2024-04-30T11:28:20.851Z,26.65
2024-04-30T11:30:20.940Z,26.60
2024-04-30T11:31:21.048Z,26.59
2024-04-30T11:32:21.202Z,26.66
2024-04-30T11:33:21.253Z,26.73
2024-04-30T11:34:21.331Z,26.66
2024-04-30T11:35:21.352Z,26.66
2024-04-30T11:36:21.407Z,26.69
2024-04-30T11:37:21.592Z,26.50
2024-04-30T11:38:21.576Z,26.41
2024-04-30T11:39:21.644Z,26.23
2024-04-30T11:40:21.767Z,26.23
2024-04-30T11:41:21.786Z,26.24
2024-04-30T11:42:27.419Z,26.29
2024-04-30T11:43:21.994Z,26.41
2024-04-30T11:44:22.050Z,26.28
2024-04-30T11:45:22.158Z,26.27
2024-04-30T11:46:22.259Z,26.32
2024-04-30T11:47:22.395Z,26.31
2024-04-30T11:48:23.503Z,26.34
2024-04-30T11:49:22.489Z,25.91
2024-04-30T11:50:22.554Z,25.71
2024-04-30T11:51:22.630Z,25.72
2024-04-30T11:52:22.745Z,25.81
2024-04-30T11:53:22.956Z,25.94
2024-04-30T11:54:22.919Z,26.04
2024-04-30T11:55:23.006Z,26.12
2024-04-30T11:56:23.073Z,26.29
2024-04-30T11:57:23.231Z,26.44
2024-04-30T11:58:23.243Z,26.51
2024-04-30T11:59:23.295Z,26.60
2024-04-30T12:00:23.389Z,26.56
2024-04-30T12:01:23.503Z,26.54
2024-04-30T12:02:23.548Z,26.65
2024-04-30T12:03:23.895Z,26.72
2024-04-30T12:04:23.724Z,26.83
2024-04-30T12:05:23.773Z,26.96
2024-04-30T12:06:23.836Z,26.88
2024-04-30T12:07:23.942Z,26.88
2024-04-30T12:08:24.038Z,26.91
2024-04-30T12:09:24.129Z,26.90
2024-04-30T12:10:24.270Z,26.91
2024-04-30T12:11:24.353Z,26.64
2024-04-30T12:12:24.401Z,26.56
2024-04-30T12:13:24.506Z,26.56
2024-04-30T12:14:24.564Z,26.35
2024-04-30T12:15:24.697Z,26.28
2024-04-30T12:16:24.799Z,26.23
2024-04-30T12:17:25.090Z,26.24
2024-04-30T12:18:24.931Z,26.29
2024-04-30T12:19:24.988Z,25.63
2024-04-30T12:20:25.067Z,25.41
2024-04-30T12:21:25.128Z,25.26
2024-04-30T12:22:25.238Z,25.08
2024-04-30T12:23:25.278Z,25.14
2024-04-30T12:24:25.365Z,25.24
2024-04-30T12:25:25.472Z,25.22
2024-04-30T12:26:25.521Z,25.22
2024-04-30T12:27:25.586Z,25.20
2024-04-30T12:28:25.762Z,25.19
2024-04-30T12:29:25.716Z,25.20
2024-04-30T12:30:25.802Z,25.26
2024-04-30T12:31:25.906Z,25.35
2024-04-30T12:32:25.931Z,25.48
2024-04-30T12:33:26.073Z,25.57
2024-04-30T12:34:26.152Z,25.66
2024-04-30T12:35:26.184Z,25.76
2024-04-30T12:36:26.300Z,25.82
2024-04-30T12:37:26.387Z,25.81
2024-04-30T12:38:26.455Z,25.78
2024-04-30T12:39:26.529Z,25.63
2024-04-30T12:40:26.651Z,25.46
2024-04-30T12:41:26.691Z,25.41
2024-04-30T12:42:26.760Z,25.41
2024-04-30T12:43:26.873Z,25.31
2024-04-30T12:44:26.927Z,25.38
2024-04-30T12:45:26.983Z,25.48
2024-04-30T12:46:27.136Z,25.51
2024-04-30T12:47:27.260Z,25.56
2024-04-30T12:48:27.275Z,25.63
2024-04-30T12:49:27.436Z,25.66
2024-04-30T12:50:27.427Z,25.45
2024-04-30T12:51:27.454Z,25.30
2024-04-30T12:52:27.544Z,25.26
2024-04-30T12:53:27.639Z,25.30
2024-04-30T12:54:27.729Z,25.35